Huxford, AL (36543)

8:32 PM CDT on August 23, 2016 (GMT -0500)
B.E.C. | | Change Station

Elev 272 ft 31.07 °N, 87.37 °W | Updated 1 minute ago

Clear
Clear
87.2 °F
Feels Like 105 °F
N
0.0
Wind Variable Wind from ENE
Gusts 2.0 mph

Today
High -- | Low -- °F
--% Chance of Precip.
Yesterday
High -- | Low -- °F
Precip. -- in
Pressure 30.14 in
Visibility 10.0 miles
Clouds Clear
Heat Index 105 °F
Dew Point 81 °F
Humidity 82%
Rainfall 0.00 in
Snow Depth Not available.
6:20 AM 7:23 PM
Waning Gibbous, 62% visible
METAR KGZH 240053Z AUTO 00000KT 10SM CLR 28/26 A3015 RMK AO2 SLP206 T02780256
Pressure 30.14 in
Visibility 10.0 miles
Clouds Clear
Heat Index 105 °F
Dew Point 81 °F
Humidity 82%
Rainfall 0.00 in
Snow Depth Not available.
6:20 AM 7:23 PM
Waning Gibbous, 62% visible
METAR KGZH 240053Z AUTO 00000KT 10SM CLR 28/26 A3015 RMK AO2 SLP206 T02780256

10-Day Weather Forecast

Almanac

Astronomy

Aug. 23, 2016 Rise Set
Actual Time
Civil Twilight
Nautical Twilight
Astronomical Twilight
Moon
Length of Visible Light
Length of Day
Tomorrow will be .
, % of the Moon is Illuminated

Today's Extremes

State Highs State Lows

Community

WunderPhotos

Upload Photos

1,934,517 photos uploaded!

WunderBlog® & News

Nearby

Air Quality

  Air Quality AQ Index Pollutant
Not available.

Snow Depth

Station Depth Elevation

Earthquake Activity

City Distance Mag. Time & Date
Minimum magnitude displayed is 2.5.

Coastal Water Temperatures

Place Temperature

Stations

Nearby Weather Stations

Station Location Temp. Windchill Dew Point Humidity Wind Precip. Elev Updated Type
                   

Watches & Warnings

There are currently no watches in effect.